createdAt,value
2022-08-04T00:00:48.020Z,991.52
2022-08-04T00:01:48.076Z,991.57
2022-08-04T00:02:47.988Z,991.54
2022-08-04T00:03:47.977Z,991.54
2022-08-04T00:04:47.968Z,991.50
2022-08-04T00:05:47.955Z,991.53
2022-08-04T00:06:47.947Z,991.52
2022-08-04T00:07:47.931Z,991.55
2022-08-04T00:08:47.917Z,991.50
2022-08-04T00:09:47.924Z,991.56
2022-08-04T00:10:47.898Z,991.53
2022-08-04T00:11:47.888Z,991.52
2022-08-04T00:12:47.873Z,991.54
2022-08-04T00:14:02.639Z,991.53
2022-08-04T00:14:47.853Z,991.53
2022-08-04T00:15:47.842Z,991.55
2022-08-04T00:16:47.829Z,991.50
2022-08-04T00:17:47.826Z,991.49
2022-08-04T00:18:47.805Z,991.47
2022-08-04T00:19:47.796Z,991.47
2022-08-04T00:20:47.787Z,991.48
2022-08-04T00:21:47.773Z,991.47
2022-08-04T00:22:47.761Z,991.46
2022-08-04T00:24:10.480Z,991.43
2022-08-04T00:24:47.735Z,991.48
2022-08-04T00:25:47.727Z,991.48
2022-08-04T00:26:47.713Z,991.46
2022-08-04T00:27:47.705Z,991.48
2022-08-04T00:28:47.691Z,991.47
2022-08-04T00:29:47.680Z,991.46
2022-08-04T00:30:47.671Z,991.48
2022-08-04T00:31:56.523Z,991.47
2022-08-04T00:32:47.643Z,991.49
2022-08-04T00:33:47.635Z,991.50
2022-08-04T00:34:47.625Z,991.49
2022-08-04T00:35:47.615Z,991.50
2022-08-04T00:36:47.599Z,991.51
2022-08-04T00:37:47.590Z,991.49
2022-08-04T00:38:47.579Z,991.50
2022-08-04T00:39:47.566Z,991.50
2022-08-04T00:40:47.554Z,991.45
2022-08-04T00:41:57.067Z,991.45
2022-08-04T00:42:58.452Z,991.46
2022-08-04T00:43:47.520Z,991.44
2022-08-04T00:44:47.509Z,991.41
2022-08-04T00:46:10.494Z,991.48
2022-08-04T00:46:47.486Z,991.47
2022-08-04T00:47:47.474Z,991.48
2022-08-04T00:48:47.463Z,991.46
2022-08-04T00:49:47.451Z,991.49
2022-08-04T00:50:47.436Z,991.46
2022-08-04T00:51:47.428Z,991.43
2022-08-04T00:52:47.413Z,991.40
2022-08-04T00:53:49.675Z,991.41
2022-08-04T00:54:47.392Z,991.41
2022-08-04T00:55:47.386Z,991.44
2022-08-04T00:56:47.368Z,991.44
2022-08-04T00:57:47.355Z,991.44
2022-08-04T00:58:47.347Z,991.42
2022-08-04T00:59:47.334Z,991.43
2022-08-04T01:00:47.322Z,991.43
2022-08-04T01:01:47.357Z,991.42
2022-08-04T01:02:47.298Z,991.40
2022-08-04T01:03:47.287Z,991.44
2022-08-04T01:04:47.275Z,991.41
2022-08-04T01:05:47.267Z,991.44
2022-08-04T01:06:56.016Z,991.46
2022-08-04T01:07:47.242Z,991.45
2022-08-04T01:08:47.229Z,991.44
2022-08-04T01:09:47.218Z,991.42
2022-08-04T01:10:47.211Z,991.42
2022-08-04T01:11:56.778Z,991.42
2022-08-04T01:12:47.182Z,991.44
2022-08-04T01:13:47.177Z,991.38
2022-08-04T01:14:47.156Z,991.37
2022-08-04T01:15:56.547Z,991.37
2022-08-04T01:16:47.140Z,991.34
2022-08-04T01:17:47.125Z,991.41
2022-08-04T01:18:47.112Z,991.40
2022-08-04T01:19:47.101Z,991.39
2022-08-04T01:20:47.088Z,991.37
2022-08-04T01:21:47.076Z,991.40
2022-08-04T01:22:47.062Z,991.37
2022-08-04T01:23:47.051Z,991.42
2022-08-04T01:24:47.040Z,991.38
2022-08-04T01:25:47.027Z,991.45
2022-08-04T01:26:57.414Z,991.47
2022-08-04T01:27:47.007Z,991.48
2022-08-04T01:28:46.994Z,991.44
2022-08-04T01:29:48.833Z,991.43
2022-08-04T01:30:46.971Z,991.46
2022-08-04T01:31:46.961Z,991.40
2022-08-04T01:32:46.948Z,991.45
2022-08-04T01:34:04.117Z,991.42
2022-08-04T01:34:46.923Z,991.44
2022-08-04T01:35:48.376Z,991.38
2022-08-04T01:36:50.083Z,991.37
2022-08-04T01:37:46.886Z,991.36
2022-08-04T01:38:46.876Z,991.35
2022-08-04T01:39:46.865Z,991.36
2022-08-04T01:40:46.852Z,991.29
2022-08-04T01:41:57.680Z,991.33
2022-08-04T01:42:46.830Z,991.30
2022-08-04T01:43:46.816Z,991.32
2022-08-04T01:44:46.806Z,991.27
2022-08-04T01:45:46.792Z,991.30
2022-08-04T01:46:46.782Z,991.27
2022-08-04T01:47:46.767Z,991.28
2022-08-04T01:48:46.757Z,991.22
2022-08-04T01:49:46.745Z,991.27
2022-08-04T01:50:46.735Z,991.26
2022-08-04T01:51:46.724Z,991.24
2022-08-04T01:52:50.919Z,991.23
2022-08-04T01:53:46.698Z,991.22
2022-08-04T01:54:46.687Z,991.23
2022-08-04T01:55:55.065Z,991.18
2022-08-04T01:56:46.663Z,991.20
2022-08-04T01:57:46.799Z,991.24
2022-08-04T01:58:46.658Z,991.21
2022-08-04T01:59:46.626Z,991.20
2022-08-04T02:00:46.616Z,991.24
2022-08-04T02:01:46.765Z,991.22
2022-08-04T02:02:46.715Z,991.25
2022-08-04T02:04:22.257Z,991.25
2022-08-04T02:04:46.570Z,991.24
2022-08-04T02:06:03.325Z,991.24
2022-08-04T02:06:46.548Z,991.22
2022-08-04T02:07:46.538Z,991.22
2022-08-04T02:08:46.521Z,991.21
2022-08-04T02:09:54.390Z,991.19
2022-08-04T02:10:46.498Z,991.19
2022-08-04T02:11:46.487Z,991.22
2022-08-04T02:12:46.476Z,991.19
2022-08-04T02:13:46.463Z,991.18
2022-08-04T02:14:46.468Z,991.17
2022-08-04T02:15:46.445Z,991.18
2022-08-04T02:16:46.431Z,991.13
2022-08-04T02:17:46.415Z,991.16
2022-08-04T02:18:46.405Z,991.13
2022-08-04T02:19:46.395Z,991.13
2022-08-04T02:20:46.382Z,991.09
2022-08-04T02:21:46.373Z,991.11
2022-08-04T02:22:46.359Z,991.10
2022-08-04T02:23:46.352Z,991.05
2022-08-04T02:24:46.335Z,991.08
2022-08-04T02:25:46.323Z,991.07
2022-08-04T02:26:46.314Z,991.05
2022-08-04T02:28:00.384Z,991.05
2022-08-04T02:28:46.287Z,991.00
2022-08-04T02:29:46.278Z,990.99
2022-08-04T02:30:46.264Z,991.02
2022-08-04T02:31:46.259Z,990.99
2022-08-04T02:32:46.240Z,990.98
2022-08-04T02:33:46.230Z,990.97
2022-08-04T02:34:46.224Z,990.95
2022-08-04T02:35:46.236Z,990.96
2022-08-04T02:36:46.215Z,990.94
2022-08-04T02:37:46.185Z,990.93
2022-08-04T02:38:46.175Z,990.94
2022-08-04T02:39:48.693Z,990.94
2022-08-04T02:40:46.148Z,990.97
2022-08-04T02:41:46.140Z,990.93
2022-08-04T02:42:46.125Z,990.94
2022-08-04T02:43:52.183Z,990.90
2022-08-04T02:44:46.101Z,990.87
2022-08-04T02:45:46.093Z,990.89
2022-08-04T02:46:46.083Z,990.91
2022-08-04T02:48:28.732Z,990.89
2022-08-04T02:48:46.056Z,990.90
2022-08-04T02:49:46.045Z,990.91
2022-08-04T02:50:46.049Z,990.91
2022-08-04T02:51:46.031Z,990.94
2022-08-04T02:52:46.009Z,990.95
2022-08-04T02:53:46.004Z,990.93
2022-08-04T02:54:45.986Z,990.96
2022-08-04T02:55:50.962Z,990.95
2022-08-04T02:56:45.961Z,990.99
2022-08-04T02:57:45.952Z,990.98
2022-08-04T02:58:45.936Z,991.01
2022-08-04T02:59:45.954Z,990.99
2022-08-04T03:00:45.975Z,990.98
2022-08-04T03:01:57.374Z,991.01
2022-08-04T03:02:45.896Z,990.99
2022-08-04T03:03:45.881Z,991.03
2022-08-04T03:04:45.872Z,991.00
2022-08-04T03:06:00.610Z,990.99
2022-08-04T03:06:45.845Z,990.99
2022-08-04T03:07:45.835Z,991.06
2022-08-04T03:08:45.822Z,991.05
2022-08-04T03:09:45.807Z,991.03
2022-08-04T03:10:46.922Z,991.03
2022-08-04T03:11:45.785Z,991.01
2022-08-04T03:12:45.775Z,991.01
2022-08-04T03:13:45.764Z,990.96
2022-08-04T03:14:45.751Z,990.97
2022-08-04T03:15:45.741Z,990.98
2022-08-04T03:16:45.723Z,990.97
2022-08-04T03:17:52.614Z,990.96
2022-08-04T03:18:45.702Z,990.99
2022-08-04T03:19:45.693Z,990.96
2022-08-04T03:20:45.680Z,990.94
2022-08-04T03:21:45.669Z,990.97
2022-08-04T03:23:11.678Z,990.96
2022-08-04T03:23:45.650Z,990.97
2022-08-04T03:24:45.632Z,990.96
2022-08-04T03:25:56.779Z,991.00
2022-08-04T03:26:45.610Z,990.97
2022-08-04T03:27:45.598Z,990.95
2022-08-04T03:28:45.582Z,990.95
2022-08-04T03:29:45.578Z,990.96
2022-08-04T03:30:45.563Z,991.00
2022-08-04T03:31:45.553Z,990.96
2022-08-04T03:32:45.537Z,991.00
2022-08-04T03:33:45.525Z,990.99
2022-08-04T03:34:45.513Z,990.97
2022-08-04T03:35:45.502Z,991.00
2022-08-04T03:36:45.491Z,990.99
2022-08-04T03:37:45.479Z,991.01
2022-08-04T03:38:55.001Z,990.98
2022-08-04T03:39:45.473Z,990.99
2022-08-04T03:40:45.441Z,990.99
2022-08-04T03:41:51.867Z,990.98
2022-08-04T03:42:45.419Z,990.97
2022-08-04T03:43:57.481Z,991.01
2022-08-04T03:44:45.392Z,991.01
2022-08-04T03:45:45.381Z,991.05
2022-08-04T03:46:45.372Z,991.02
2022-08-04T03:47:45.361Z,991.00
2022-08-04T03:48:45.349Z,991.02
2022-08-04T03:49:45.340Z,991.00
2022-08-04T03:50:45.325Z,990.98
2022-08-04T03:51:45.309Z,991.00
2022-08-04T03:52:47.216Z,990.97
2022-08-04T03:53:45.288Z,991.04
2022-08-04T03:54:45.283Z,990.97
2022-08-04T03:55:45.262Z,990.98
2022-08-04T03:56:45.252Z,991.00
2022-08-04T03:57:45.240Z,991.04
2022-08-04T03:58:45.228Z,991.04
2022-08-04T03:59:48.718Z,991.04
2022-08-04T04:00:45.217Z,990.98
2022-08-04T04:02:02.271Z,991.01
2022-08-04T04:02:45.250Z,991.03
2022-08-04T04:03:45.169Z,991.05
2022-08-04T04:04:45.157Z,991.04
2022-08-04T04:05:58.839Z,991.06
2022-08-04T04:06:47.350Z,991.06
2022-08-04T04:07:45.120Z,991.09
2022-08-04T04:08:45.304Z,991.14
2022-08-04T04:09:57.611Z,991.14
2022-08-04T04:10:45.086Z,991.14
2022-08-04T04:11:56.360Z,991.16
2022-08-04T04:12:45.060Z,991.15
2022-08-04T04:13:45.048Z,991.19
2022-08-04T04:14:45.034Z,991.19
2022-08-04T04:15:49.796Z,991.17
2022-08-04T04:16:45.010Z,991.21
2022-08-04T04:17:44.999Z,991.18
2022-08-04T04:18:45.499Z,991.16
2022-08-04T04:19:44.977Z,991.13
2022-08-04T04:20:44.965Z,991.15
2022-08-04T04:21:44.953Z,991.14
2022-08-04T04:22:44.942Z,991.19
2022-08-04T04:23:44.928Z,991.15
2022-08-04T04:24:44.938Z,991.13
2022-08-04T04:25:44.905Z,991.12
2022-08-04T04:26:44.892Z,991.15
2022-08-04T04:27:44.883Z,991.15
2022-08-04T04:28:46.998Z,991.18
2022-08-04T04:29:44.865Z,991.18
2022-08-04T04:30:44.843Z,991.15
2022-08-04T04:31:44.830Z,991.18
2022-08-04T04:32:44.816Z,991.18
2022-08-04T04:33:44.808Z,991.17
2022-08-04T04:34:46.392Z,991.20
2022-08-04T04:35:44.783Z,991.19
2022-08-04T04:36:44.772Z,991.19
2022-08-04T04:37:48.761Z,991.19
2022-08-04T04:38:44.745Z,991.18
2022-08-04T04:39:44.750Z,991.22
2022-08-04T04:40:44.724Z,991.19
2022-08-04T04:41:44.709Z,991.19
2022-08-04T04:42:44.699Z,991.19
2022-08-04T04:43:51.659Z,991.24
2022-08-04T04:44:44.674Z,991.20
2022-08-04T04:45:44.665Z,991.21
2022-08-04T04:46:44.654Z,991.24
2022-08-04T04:48:08.582Z,991.22
2022-08-04T04:48:44.628Z,991.28
2022-08-04T04:49:44.617Z,991.28
2022-08-04T04:50:44.603Z,991.27
2022-08-04T04:51:44.594Z,991.29
2022-08-04T04:52:44.578Z,991.26
2022-08-04T04:53:44.566Z,991.29
2022-08-04T04:54:44.554Z,991.29
2022-08-04T04:55:48.088Z,991.26
2022-08-04T04:56:44.528Z,991.28
2022-08-04T04:57:53.810Z,991.31
2022-08-04T04:58:44.506Z,991.33
2022-08-04T04:59:44.495Z,991.29
2022-08-04T05:00:44.486Z,991.27
2022-08-04T05:01:44.475Z,991.23
2022-08-04T05:02:44.461Z,991.29
2022-08-04T05:03:44.443Z,991.28
2022-08-04T05:04:44.435Z,991.29
2022-08-04T05:05:44.422Z,991.30
2022-08-04T05:06:44.411Z,991.29
2022-08-04T05:07:44.395Z,991.29
2022-08-04T05:08:47.427Z,991.31
2022-08-04T05:09:44.375Z,991.32
2022-08-04T05:10:44.363Z,991.30
2022-08-04T05:11:44.351Z,991.29
2022-08-04T05:14:31.249Z,991.27
2022-08-04T05:14:38.769Z,991.30
2022-08-04T05:14:44.315Z,991.24
2022-08-04T05:15:44.299Z,991.27
2022-08-04T05:16:44.289Z,991.26
2022-08-04T05:17:44.277Z,991.29
2022-08-04T05:18:44.268Z,991.32
2022-08-04T05:19:44.252Z,991.30
2022-08-04T05:20:44.240Z,991.31
2022-08-04T05:21:44.233Z,991.34
2022-08-04T05:22:44.220Z,991.32
2022-08-04T05:23:44.211Z,991.31
2022-08-04T05:24:44.197Z,991.34
2022-08-04T05:25:58.694Z,991.33
2022-08-04T05:26:44.173Z,991.35
2022-08-04T05:27:44.158Z,991.36
2022-08-04T05:28:44.150Z,991.33
2022-08-04T05:29:44.136Z,991.35
2022-08-04T05:30:44.126Z,991.35
2022-08-04T05:31:44.118Z,991.34
2022-08-04T05:32:44.099Z,991.33
2022-08-04T05:33:44.089Z,991.34
2022-08-04T05:34:44.078Z,991.38
2022-08-04T05:36:18.701Z,991.37
2022-08-04T05:36:44.054Z,991.34
2022-08-04T05:37:44.054Z,991.36
2022-08-04T05:38:44.032Z,991.35
2022-08-04T05:39:46.258Z,991.40
2022-08-04T05:40:44.010Z,991.35
2022-08-04T05:41:45.502Z,991.38
2022-08-04T05:42:43.987Z,991.38
2022-08-04T05:43:43.976Z,991.40
2022-08-04T05:44:48.887Z,991.39
2022-08-04T05:45:43.952Z,991.43
2022-08-04T05:46:43.947Z,991.39
2022-08-04T05:47:43.928Z,991.43
2022-08-04T05:48:43.919Z,991.43
2022-08-04T05:49:43.910Z,991.46
2022-08-04T05:50:43.895Z,991.40
2022-08-04T05:51:43.886Z,991.41
2022-08-04T05:52:43.875Z,991.40
2022-08-04T05:53:43.865Z,991.42
2022-08-04T05:54:43.857Z,991.43
2022-08-04T05:55:56.778Z,991.41
2022-08-04T05:56:43.833Z,991.45
2022-08-04T05:57:43.823Z,991.44
2022-08-04T05:58:43.812Z,991.45
2022-08-04T05:59:43.800Z,991.47
2022-08-04T06:00:52.388Z,991.46
2022-08-04T06:01:56.607Z,991.45
2022-08-04T06:02:43.771Z,991.46
2022-08-04T06:03:43.759Z,991.50
2022-08-04T06:04:43.747Z,991.48
2022-08-04T06:05:43.736Z,991.47
2022-08-04T06:06:43.726Z,991.51
2022-08-04T06:08:11.948Z,991.50
2022-08-04T06:08:43.705Z,991.49
2022-08-04T06:09:43.701Z,991.45
2022-08-04T06:10:43.689Z,991.45
2022-08-04T06:12:00.740Z,991.48
2022-08-04T06:12:43.668Z,991.46
2022-08-04T06:13:49.648Z,991.46
2022-08-04T06:14:43.646Z,991.44
2022-08-04T06:15:44.507Z,991.39
2022-08-04T06:16:46.038Z,991.44
2022-08-04T06:18:32.880Z,991.46
2022-08-04T06:20:00.116Z,991.49
2022-08-04T06:20:03.221Z,991.44
2022-08-04T06:20:50.032Z,991.44
2022-08-04T06:21:43.581Z,991.47
2022-08-04T06:22:43.573Z,991.43
2022-08-04T06:23:52.960Z,991.47
2022-08-04T06:24:43.551Z,991.44
2022-08-04T06:25:43.546Z,991.49
2022-08-04T06:26:43.530Z,991.43
2022-08-04T06:27:43.527Z,991.48
2022-08-04T06:28:43.513Z,991.50
2022-08-04T06:29:50.699Z,991.49
2022-08-04T06:30:43.497Z,991.53
2022-08-04T06:32:28.386Z,991.51
2022-08-04T06:32:43.481Z,991.51
2022-08-04T06:33:54.553Z,991.48
2022-08-04T06:34:43.462Z,991.51
2022-08-04T06:35:43.453Z,991.52
2022-08-04T06:36:43.464Z,991.51
2022-08-04T06:37:44.509Z,991.55
2022-08-04T06:38:43.428Z,991.54
2022-08-04T06:39:43.484Z,991.58
2022-08-04T06:40:43.410Z,991.60
2022-08-04T06:42:17.509Z,991.52
2022-08-04T06:42:43.394Z,991.52
2022-08-04T06:43:44.082Z,991.53
2022-08-04T06:44:43.375Z,991.56
2022-08-04T06:45:43.366Z,991.58
2022-08-04T06:46:43.360Z,991.54
2022-08-04T06:47:43.353Z,991.54
2022-08-04T06:48:43.339Z,991.51
2022-08-04T06:51:22.931Z,991.54
2022-08-04T06:51:27.260Z,991.55
2022-08-04T06:51:49.208Z,991.50
2022-08-04T06:52:43.312Z,991.45
2022-08-04T06:53:43.302Z,991.48
2022-08-04T06:54:43.291Z,991.50
2022-08-04T06:55:43.285Z,991.46
2022-08-04T06:56:43.281Z,991.46
2022-08-04T06:57:43.272Z,991.48
2022-08-04T06:58:43.289Z,991.48
2022-08-04T06:59:43.253Z,991.52
2022-08-04T07:00:43.251Z,991.51
2022-08-04T07:01:43.265Z,991.53
2022-08-04T07:02:43.234Z,991.53
2022-08-04T07:03:43.237Z,991.51
2022-08-04T07:04:43.217Z,991.49
2022-08-04T07:05:43.205Z,991.49
2022-08-04T07:06:43.206Z,991.50
2022-08-04T07:07:56.906Z,991.55
2022-08-04T07:08:43.188Z,991.55
2022-08-04T07:09:43.181Z,991.49
2022-08-04T07:10:43.174Z,991.50
2022-08-04T07:11:44.696Z,991.52
2022-08-04T07:12:43.163Z,991.51
2022-08-04T07:13:45.233Z,991.54
2022-08-04T07:14:43.150Z,991.52
2022-08-04T07:15:43.141Z,991.57
2022-08-04T07:16:43.139Z,991.55
2022-08-04T07:17:43.125Z,991.51
2022-08-04T07:18:43.126Z,991.52
2022-08-04T07:19:43.117Z,991.55
2022-08-04T07:20:43.108Z,991.46
2022-08-04T07:22:16.394Z,991.46
2022-08-04T07:22:43.124Z,991.45
2022-08-04T07:23:43.089Z,991.47
2022-08-04T07:24:43.085Z,991.47
2022-08-04T07:25:58.800Z,991.44
2022-08-04T07:26:43.076Z,991.42
2022-08-04T07:27:47.741Z,991.42
2022-08-04T07:28:43.064Z,991.49
2022-08-04T07:29:43.059Z,991.46
2022-08-04T07:30:43.049Z,991.47
2022-08-04T07:31:43.044Z,991.49
2022-08-04T07:32:43.039Z,991.52
2022-08-04T07:33:43.034Z,991.52
2022-08-04T07:34:43.028Z,991.51
2022-08-04T07:36:04.953Z,991.51
2022-08-04T07:36:50.983Z,991.48
2022-08-04T07:37:43.016Z,991.51
2022-08-04T07:38:46.377Z,991.48
2022-08-04T07:39:47.686Z,991.47
2022-08-04T07:40:43.001Z,991.47
2022-08-04T07:41:46.138Z,991.48
2022-08-04T07:42:42.993Z,991.48
2022-08-04T07:43:42.986Z,991.47
2022-08-04T07:44:43.026Z,991.46
2022-08-04T07:45:42.971Z,991.49
2022-08-04T07:46:42.970Z,991.54
2022-08-04T07:48:05.198Z,991.52
2022-08-04T07:48:42.958Z,991.46
2022-08-04T07:49:55.553Z,991.48
2022-08-04T07:50:42.952Z,991.49
2022-08-04T07:51:42.950Z,991.42
2022-08-04T07:52:42.947Z,991.45
2022-08-04T07:53:54.291Z,991.44
2022-08-04T07:54:42.945Z,991.51
2022-08-04T07:55:42.931Z,991.42
2022-08-04T07:56:42.925Z,991.49
2022-08-04T07:57:43.348Z,991.49
2022-08-04T07:58:42.921Z,991.46
2022-08-04T07:59:45.901Z,991.47
2022-08-04T08:00:42.915Z,991.48
2022-08-04T08:01:42.911Z,991.51
2022-08-04T08:02:42.908Z,991.48
2022-08-04T08:03:42.966Z,991.53
2022-08-04T08:04:42.902Z,991.48
2022-08-04T08:06:16.595Z,991.44
2022-08-04T08:06:43.415Z,991.45
2022-08-04T08:07:50.481Z,991.42
2022-08-04T08:08:42.887Z,991.42
2022-08-04T08:09:42.888Z,991.41
2022-08-04T08:10:42.885Z,991.41
2022-08-04T08:12:36.765Z,991.41
2022-08-04T08:12:51.517Z,991.42
2022-08-04T08:13:42.877Z,991.40
2022-08-04T08:14:42.876Z,991.40
2022-08-04T08:15:42.872Z,991.37
2022-08-04T08:16:42.873Z,991.38
2022-08-04T08:17:58.432Z,991.39
2022-08-04T08:18:46.800Z,991.39
2022-08-04T08:19:42.864Z,991.37
2022-08-04T08:20:42.861Z,991.39
2022-08-04T08:21:58.491Z,991.37
2022-08-04T08:22:42.866Z,991.34
2022-08-04T08:23:42.857Z,991.33
2022-08-04T08:24:42.857Z,991.31
2022-08-04T08:25:42.854Z,991.32
2022-08-04T08:26:42.853Z,991.36
2022-08-04T08:27:55.718Z,991.34
2022-08-04T08:28:42.853Z,991.34
2022-08-04T08:29:42.851Z,991.31
2022-08-04T08:30:42.849Z,991.31
2022-08-04T08:31:56.408Z,991.27
2022-08-04T08:32:42.848Z,991.31
2022-08-04T08:33:42.846Z,991.29
2022-08-04T08:34:42.843Z,991.23
2022-08-04T08:35:51.139Z,991.23
2022-08-04T08:36:42.845Z,991.29
2022-08-04T08:37:42.842Z,991.24
2022-08-04T08:38:42.840Z,991.25
2022-08-04T08:39:42.879Z,991.27
2022-08-04T08:40:42.842Z,991.26
2022-08-04T08:41:42.841Z,991.26
2022-08-04T08:42:42.839Z,991.25
2022-08-04T08:44:05.404Z,991.26
2022-08-04T08:44:42.837Z,991.27
2022-08-04T08:45:42.837Z,991.30
2022-08-04T08:46:49.747Z,991.25
2022-08-04T08:47:58.492Z,991.27
2022-08-04T08:48:42.839Z,991.23
2022-08-04T08:50:02.745Z,991.27
2022-08-04T08:50:42.839Z,991.30
2022-08-04T08:51:47.404Z,991.28
2022-08-04T08:53:00.877Z,991.27
2022-08-04T08:53:42.840Z,991.27
2022-08-04T08:54:42.837Z,991.26
2022-08-04T08:55:42.837Z,991.27
2022-08-04T08:56:42.846Z,991.29
2022-08-04T08:57:59.611Z,991.27
2022-08-04T08:58:42.837Z,991.34
2022-08-04T08:59:42.840Z,991.27
2022-08-04T09:00:42.838Z,991.35
2022-08-04T09:01:42.869Z,991.29
2022-08-04T09:02:42.840Z,991.32
2022-08-04T09:03:42.844Z,991.32
2022-08-04T09:04:42.842Z,991.30
2022-08-04T09:05:42.842Z,991.30
2022-08-04T09:06:42.842Z,991.28
2022-08-04T09:07:42.841Z,991.32
2022-08-04T09:08:42.842Z,991.28
2022-08-04T09:09:42.847Z,991.24
2022-08-04T09:10:42.845Z,991.26
2022-08-04T09:11:42.847Z,991.27
2022-08-04T09:12:42.843Z,991.25
2022-08-04T09:13:42.848Z,991.24
2022-08-04T09:14:42.853Z,991.26
2022-08-04T09:15:42.851Z,991.27
2022-08-04T09:16:42.847Z,991.27
2022-08-04T09:17:42.853Z,991.28
2022-08-04T09:18:42.855Z,991.29
2022-08-04T09:19:42.859Z,991.29
2022-08-04T09:20:42.872Z,991.27
2022-08-04T09:21:42.858Z,991.26
2022-08-04T09:22:42.858Z,991.24
2022-08-04T09:23:42.864Z,991.27
2022-08-04T09:24:42.865Z,991.36
2022-08-04T09:25:42.866Z,991.29
2022-08-04T09:26:42.862Z,991.30
2022-08-04T09:27:42.866Z,991.34
2022-08-04T09:28:55.772Z,991.31
2022-08-04T09:29:42.867Z,991.33
2022-08-04T09:30:42.879Z,991.32
2022-08-04T09:31:53.012Z,991.33
2022-08-04T09:32:42.868Z,991.35
2022-08-04T09:33:45.712Z,991.36
2022-08-04T09:34:42.872Z,991.33
2022-08-04T09:35:42.877Z,991.35
2022-08-04T09:36:42.877Z,991.31
2022-08-04T09:37:46.127Z,991.31
2022-08-04T09:38:42.878Z,991.31
2022-08-04T09:39:44.546Z,991.29
2022-08-04T09:40:53.845Z,991.32
2022-08-04T09:41:49.574Z,991.35
2022-08-04T09:42:42.883Z,991.31
2022-08-04T09:43:59.047Z,991.32
2022-08-04T09:44:52.613Z,991.23
2022-08-04T09:45:44.286Z,991.30
2022-08-04T09:46:42.890Z,991.28
2022-08-04T09:47:42.894Z,991.24
2022-08-04T09:48:42.900Z,991.28
2022-08-04T09:49:42.905Z,991.32
2022-08-04T09:50:46.916Z,991.32
2022-08-04T09:51:57.764Z,991.26
2022-08-04T09:52:42.902Z,991.27
2022-08-04T09:53:42.905Z,991.27
2022-08-04T09:54:42.908Z,991.28
2022-08-04T09:55:54.604Z,991.27
2022-08-04T09:56:42.914Z,991.23
2022-08-04T09:57:42.920Z,991.24
2022-08-04T09:58:42.920Z,991.25
2022-08-04T09:59:42.923Z,991.19
2022-08-04T10:00:42.927Z,991.24
2022-08-04T10:01:42.951Z,991.23
2022-08-04T10:02:43.006Z,991.20
2022-08-04T10:03:42.936Z,991.20
2022-08-04T10:04:42.935Z,991.18
2022-08-04T10:05:42.934Z,991.19
2022-08-04T10:06:42.937Z,991.21
2022-08-04T10:07:42.939Z,991.22
2022-08-04T10:08:42.944Z,991.21
2022-08-04T10:09:42.946Z,991.20
2022-08-04T10:10:42.947Z,991.18
2022-08-04T10:11:56.232Z,991.19
2022-08-04T10:12:42.954Z,991.18
2022-08-04T10:13:42.962Z,991.17
2022-08-04T10:14:42.957Z,991.19
2022-08-04T10:15:42.964Z,991.16
2022-08-04T10:16:42.965Z,991.15
2022-08-04T10:17:43.639Z,991.13
2022-08-04T10:18:42.970Z,991.13
2022-08-04T10:19:42.973Z,991.14
2022-08-04T10:20:46.495Z,991.10
2022-08-04T10:21:59.143Z,991.10
2022-08-04T10:23:02.180Z,991.12
2022-08-04T10:23:55.098Z,991.07
2022-08-04T10:24:42.998Z,991.09
2022-08-04T10:26:05.475Z,991.08
2022-08-04T10:26:42.998Z,991.07
2022-08-04T10:27:43.004Z,991.08
2022-08-04T10:28:43.014Z,991.03
2022-08-04T10:29:43.013Z,991.06
2022-08-04T10:30:43.016Z,991.06
2022-08-04T10:31:43.018Z,991.02
2022-08-04T10:32:43.268Z,991.06
2022-08-04T10:33:43.027Z,991.08
2022-08-04T10:34:43.032Z,991.03
2022-08-04T10:35:43.039Z,991.01
2022-08-04T10:36:43.040Z,990.98
2022-08-04T10:37:58.910Z,991.01
2022-08-04T10:38:43.050Z,991.00
2022-08-04T10:39:44.518Z,991.01
2022-08-04T10:40:43.054Z,991.02
2022-08-04T10:41:43.070Z,991.07
2022-08-04T10:42:43.066Z,991.03
2022-08-04T10:43:43.071Z,991.01
2022-08-04T10:44:43.073Z,991.01
2022-08-04T10:45:43.077Z,991.01
2022-08-04T10:46:43.079Z,991.02
2022-08-04T10:47:43.091Z,991.06
2022-08-04T10:48:45.849Z,991.02
2022-08-04T10:49:43.089Z,990.98
2022-08-04T10:50:43.096Z,990.98
2022-08-04T10:51:57.752Z,990.98
2022-08-04T10:52:43.103Z,990.97
2022-08-04T10:53:43.106Z,990.96
2022-08-04T10:54:43.110Z,990.96
2022-08-04T10:56:05.705Z,990.92
2022-08-04T10:56:43.115Z,990.91
2022-08-04T10:57:43.122Z,990.89
2022-08-04T10:58:48.587Z,990.89
2022-08-04T10:59:43.129Z,990.88
2022-08-04T11:00:43.131Z,990.87
2022-08-04T11:02:02.110Z,990.89
2022-08-04T11:02:43.212Z,990.90
2022-08-04T11:03:43.142Z,990.91
2022-08-04T11:04:43.145Z,990.89
2022-08-04T11:05:43.858Z,990.90
2022-08-04T11:06:43.152Z,990.94
2022-08-04T11:07:43.153Z,990.92
2022-08-04T11:08:43.153Z,990.89
2022-08-04T11:09:43.162Z,990.89
2022-08-04T11:10:43.163Z,990.90
2022-08-04T11:12:01.798Z,990.87
2022-08-04T11:12:43.175Z,990.91
2022-08-04T11:13:46.946Z,990.88
2022-08-04T11:14:43.178Z,990.84
2022-08-04T11:15:43.181Z,990.84
2022-08-04T11:16:43.183Z,990.85
2022-08-04T11:17:43.189Z,990.89
2022-08-04T11:18:43.194Z,990.86
2022-08-04T11:19:46.222Z,990.83
2022-08-04T11:20:43.199Z,990.86
2022-08-04T11:21:43.205Z,990.85
2022-08-04T11:22:43.207Z,990.88
2022-08-04T11:23:43.211Z,990.93
2022-08-04T11:24:43.221Z,990.94
2022-08-04T11:25:43.222Z,990.92
2022-08-04T11:26:43.227Z,990.96
2022-08-04T11:27:43.229Z,990.95
2022-08-04T11:28:43.234Z,990.96
2022-08-04T11:29:43.241Z,990.99
2022-08-04T11:30:43.240Z,991.04
2022-08-04T11:31:44.214Z,991.02
2022-08-04T11:32:43.252Z,991.03
2022-08-04T11:33:43.255Z,991.01
2022-08-04T11:34:43.270Z,991.06
2022-08-04T11:35:52.380Z,991.04
2022-08-04T11:37:52.285Z,990.99
2022-08-04T11:38:52.468Z,990.96
2022-08-04T11:41:02.613Z,990.99
2022-08-04T11:41:59.280Z,990.95
2022-08-04T11:44:10.570Z,991.00
2022-08-04T11:45:06.288Z,990.94
2022-08-04T11:47:02.239Z,990.95
2022-08-04T11:48:02.235Z,990.91
2022-08-04T11:50:09.257Z,990.93
2022-08-04T11:51:09.238Z,990.89
2022-08-04T11:53:23.864Z,990.98
2022-08-04T11:54:23.868Z,990.96
2022-08-04T11:56:36.006Z,990.97
2022-08-04T11:57:35.832Z,990.94
2022-08-04T11:59:39.882Z,990.97
2022-08-04T12:00:39.881Z,990.93
2022-08-04T12:02:49.051Z,990.94
2022-08-04T12:03:59.697Z,991.01
2022-08-04T12:04:48.978Z,990.89
2022-08-04T12:05:48.985Z,990.96
2022-08-04T12:06:50.387Z,990.98
2022-08-04T12:07:49.278Z,991.02
2022-08-04T12:08:48.995Z,991.05
2022-08-04T12:09:49.000Z,991.01
2022-08-04T12:10:49.009Z,990.97
2022-08-04T12:11:49.009Z,990.99
2022-08-04T12:12:49.016Z,990.92
2022-08-04T12:13:49.020Z,990.87
2022-08-04T12:14:49.030Z,990.94
2022-08-04T12:15:49.031Z,990.93
2022-08-04T12:16:49.038Z,990.87
2022-08-04T12:17:52.428Z,990.90
2022-08-04T12:18:49.054Z,990.90
2022-08-04T12:20:03.755Z,990.88
2022-08-04T12:20:49.054Z,990.93
2022-08-04T12:21:53.257Z,990.90
2022-08-04T12:22:49.098Z,990.93
2022-08-04T12:23:49.066Z,990.90
2022-08-04T12:24:49.069Z,990.86
2022-08-04T12:25:49.075Z,990.86
2022-08-04T12:26:49.079Z,990.87
2022-08-04T12:27:49.086Z,990.86
2022-08-04T12:29:19.013Z,990.88
2022-08-04T12:30:57.530Z,990.84
2022-08-04T12:31:00.190Z,990.80
2022-08-04T12:31:49.098Z,990.81
2022-08-04T12:32:53.654Z,990.77
2022-08-04T12:34:04.205Z,990.79
2022-08-04T12:34:49.124Z,990.74
2022-08-04T12:36:10.087Z,990.79
2022-08-04T12:36:49.127Z,990.77
2022-08-04T12:37:49.131Z,990.69
2022-08-04T12:38:49.142Z,990.67